createdAt,value
2023-03-20T00:00:31.754Z,18.15
2023-03-20T00:02:58.216Z,13.55
2023-03-20T00:05:26.233Z,15.05
2023-03-20T00:07:53.141Z,11.95
2023-03-20T00:10:20.936Z,15.73
2023-03-20T00:12:49.841Z,15.15
2023-03-20T00:15:36.580Z,16.27
2023-03-20T00:18:04.164Z,14.50
2023-03-20T00:20:31.751Z,16.58
2023-03-20T00:22:58.263Z,15.20
2023-03-20T00:25:26.943Z,14.45
2023-03-20T00:27:53.448Z,16.35
2023-03-20T00:30:29.474Z,15.88
2023-03-20T00:32:57.984Z,13.93
2023-03-20T00:35:28.494Z,13.60
2023-03-20T00:37:57.566Z,11.80
2023-03-20T00:40:30.120Z,13.48
2023-03-20T00:43:01.131Z,12.27
2023-03-20T00:45:31.496Z,11.23
2023-03-20T00:47:58.555Z,12.15
2023-03-20T00:50:30.454Z,13.20
2023-03-20T00:52:59.293Z,11.18
2023-03-20T00:55:29.347Z,12.05
2023-03-20T00:58:02.566Z,13.85
2023-03-20T01:00:31.680Z,12.75
2023-03-20T01:02:58.873Z,12.00
2023-03-20T01:05:27.426Z,11.75
2023-03-20T01:07:54.916Z,10.82
2023-03-20T01:10:25.965Z,12.55
2023-03-20T01:12:52.441Z,11.75
2023-03-20T01:15:22.832Z,13.70
2023-03-20T01:17:49.771Z,11.85
2023-03-20T01:20:30.924Z,13.35
2023-03-20T01:22:57.428Z,11.85
2023-03-20T01:25:23.918Z,11.15
2023-03-20T01:27:52.786Z,9.48
2023-03-20T01:30:25.087Z,10.70
2023-03-20T01:32:51.870Z,10.05
2023-03-20T01:35:22.806Z,10.23
2023-03-20T01:37:50.897Z,8.98
2023-03-20T01:40:41.013Z,10.98
2023-03-20T01:43:18.433Z,9.68
2023-03-20T01:46:01.478Z,8.38
2023-03-20T01:48:50.580Z,9.38
2023-03-20T01:51:20.825Z,10.27
2023-03-20T01:53:51.724Z,11.07
2023-03-20T01:56:20.108Z,9.80
2023-03-20T01:58:58.708Z,10.63
2023-03-20T02:01:27.661Z,10.00
2023-03-20T02:03:55.734Z,12.10
2023-03-20T02:06:45.080Z,10.40
2023-03-20T02:09:17.852Z,11.57
2023-03-20T02:11:47.056Z,9.60
2023-03-20T02:14:15.822Z,10.18
2023-03-20T02:16:54.026Z,10.52
2023-03-20T02:19:45.560Z,9.95
2023-03-20T02:22:24.403Z,9.73
2023-03-20T02:25:15.476Z,10.30
2023-03-20T02:28:01.556Z,12.05
2023-03-20T02:30:43.097Z,9.73
2023-03-20T02:33:51.034Z,11.27
2023-03-20T02:36:43.001Z,12.18
2023-03-20T02:39:31.657Z,11.50
2023-03-20T02:42:16.792Z,10.63
2023-03-20T02:44:58.390Z,13.10
2023-03-20T02:48:08.436Z,11.95
2023-03-20T02:50:46.072Z,14.90
2023-03-20T02:53:39.003Z,13.55
2023-03-20T02:56:42.148Z,12.35
2023-03-20T02:59:41.441Z,13.43
2023-03-20T03:02:12.781Z,11.57
2023-03-20T03:04:51.716Z,11.10
2023-03-20T03:07:21.423Z,11.70
2023-03-20T03:09:57.189Z,11.73
2023-03-20T03:12:29.522Z,11.02
2023-03-20T03:15:04.684Z,13.98
2023-03-20T03:17:36.181Z,13.40
2023-03-20T03:20:07.775Z,14.30
2023-03-20T03:22:36.172Z,12.32
2023-03-20T03:25:02.677Z,12.38
2023-03-20T03:27:36.508Z,14.55
2023-03-20T03:30:11.590Z,14.73
2023-03-20T03:33:03.482Z,13.48
2023-03-20T03:35:31.048Z,12.25
2023-03-20T03:38:08.468Z,12.77
2023-03-20T03:40:46.355Z,14.45
2023-03-20T03:43:16.740Z,12.65
2023-03-20T03:45:57.579Z,15.75
2023-03-20T03:48:32.340Z,12.93
2023-03-20T03:51:08.520Z,15.63
2023-03-20T03:53:48.906Z,14.15
2023-03-20T03:56:21.950Z,13.18
2023-03-20T03:58:52.446Z,15.65
2023-03-20T04:01:22.213Z,15.40
2023-03-20T04:03:56.136Z,14.95
2023-03-20T04:06:22.677Z,14.40
2023-03-20T04:08:51.738Z,14.45
2023-03-20T04:11:24.290Z,16.30
2023-03-20T04:13:52.315Z,15.30
2023-03-20T04:16:21.746Z,15.05
2023-03-20T04:18:48.404Z,14.70
2023-03-20T04:21:16.107Z,15.95
2023-03-20T04:23:43.881Z,15.50
2023-03-20T04:26:10.311Z,16.13
2023-03-20T04:28:37.589Z,13.45
2023-03-20T04:31:38.126Z,15.65
2023-03-20T04:34:12.094Z,20.02
2023-03-20T04:36:58.483Z,23.85
2023-03-20T04:39:36.629Z,22.35
2023-03-20T04:42:04.602Z,22.00
2023-03-20T04:44:31.499Z,25.55
2023-03-20T04:46:58.296Z,20.88
2023-03-20T04:49:24.891Z,22.13
2023-03-20T04:51:51.341Z,23.35
2023-03-20T04:54:27.718Z,20.90
2023-03-20T04:56:54.164Z,22.83
2023-03-20T04:59:20.777Z,22.00
2023-03-20T05:01:47.244Z,23.20
2023-03-20T05:04:13.802Z,23.83
2023-03-20T05:06:40.395Z,25.67
2023-03-20T05:09:06.871Z,23.30
2023-03-20T05:11:35.399Z,28.65
2023-03-20T05:14:01.982Z,26.90
2023-03-20T05:16:28.466Z,23.38
2023-03-20T05:19:12.580Z,23.00
2023-03-20T05:21:52.706Z,24.40
2023-03-20T05:24:38.481Z,22.65
2023-03-20T05:27:23.393Z,19.17
2023-03-20T05:30:02.231Z,22.55
2023-03-20T05:32:54.865Z,15.63
2023-03-20T05:35:36.638Z,16.75
2023-03-20T05:38:22.680Z,17.15
2023-03-20T05:41:02.071Z,21.92
2023-03-20T05:43:42.620Z,18.15
2023-03-20T05:46:27.509Z,17.23
2023-03-20T05:49:12.719Z,17.38
2023-03-20T05:52:11.598Z,16.65
2023-03-20T05:54:47.405Z,16.27
2023-03-20T05:57:36.943Z,14.57
2023-03-20T06:00:35.859Z,12.60
2023-03-20T06:03:25.342Z,16.75
2023-03-20T06:06:04.145Z,14.55
2023-03-20T06:08:30.707Z,15.00
2023-03-20T06:10:59.781Z,15.50
2023-03-20T06:13:26.395Z,15.15
2023-03-20T06:15:52.958Z,14.73
2023-03-20T06:18:19.775Z,17.40
2023-03-20T06:20:46.279Z,16.60
2023-03-20T06:23:13.696Z,13.85
2023-03-20T06:25:40.310Z,15.00
2023-03-20T06:28:08.141Z,13.65
2023-03-20T06:30:34.775Z,15.63
2023-03-20T06:33:01.459Z,12.13
2023-03-20T06:35:36.971Z,14.52
2023-03-20T06:38:03.986Z,13.02
2023-03-20T06:40:30.557Z,13.38
2023-03-20T06:42:57.531Z,11.88
2023-03-20T06:45:31.787Z,12.40
2023-03-20T06:48:00.876Z,12.20
2023-03-20T06:50:27.876Z,14.75
2023-03-20T06:52:55.477Z,12.65
2023-03-20T06:55:43.503Z,13.05
2023-03-20T06:58:10.233Z,11.68
2023-03-20T07:00:37.597Z,15.20
2023-03-20T07:03:05.946Z,18.25
2023-03-20T07:05:32.669Z,12.73
2023-03-20T07:08:01.040Z,13.10
2023-03-20T07:10:28.465Z,14.68
2023-03-20T07:12:55.765Z,13.25
2023-03-20T07:15:22.859Z,15.45
2023-03-20T07:17:49.819Z,16.48
2023-03-20T07:20:17.301Z,17.30
2023-03-20T07:22:43.986Z,19.80
2023-03-20T07:25:15.886Z,19.08
2023-03-20T07:27:46.529Z,16.85
2023-03-20T07:30:13.164Z,20.58
2023-03-20T07:32:39.757Z,17.55
2023-03-20T07:35:07.157Z,17.65
2023-03-20T07:37:33.825Z,20.42
2023-03-20T07:40:02.496Z,17.73
2023-03-20T07:42:35.080Z,15.57
2023-03-20T07:45:14.050Z,19.27
2023-03-20T07:47:45.528Z,17.70
2023-03-20T07:50:12.045Z,16.67
2023-03-20T07:52:38.474Z,18.58
2023-03-20T07:55:05.935Z,18.92
2023-03-20T07:57:32.372Z,17.67
2023-03-20T07:59:58.874Z,17.58
2023-03-20T08:02:25.840Z,19.55
2023-03-20T08:04:52.191Z,19.35
2023-03-20T08:07:18.903Z,18.48
2023-03-20T08:09:45.543Z,16.55
2023-03-20T08:12:11.912Z,16.17
2023-03-20T08:14:39.744Z,14.00
2023-03-20T08:17:14.865Z,15.23
2023-03-20T08:19:42.388Z,16.05
2023-03-20T08:22:08.790Z,14.40
2023-03-20T08:24:35.445Z,13.52
2023-03-20T08:27:01.845Z,13.27
2023-03-20T08:29:28.605Z,10.45
2023-03-20T08:31:55.920Z,14.75
2023-03-20T08:34:24.127Z,12.75
2023-03-20T08:36:54.323Z,11.45
2023-03-20T08:39:21.776Z,12.75
2023-03-20T08:41:48.183Z,14.15
2023-03-20T08:44:14.836Z,10.98
2023-03-20T08:46:43.610Z,11.98
2023-03-20T08:49:10.069Z,12.60
2023-03-20T08:51:36.508Z,13.18
2023-03-20T08:54:03.029Z,11.55
2023-03-20T08:56:29.480Z,10.35
2023-03-20T08:58:56.181Z,7.82
2023-03-20T09:01:23.075Z,10.23
2023-03-20T09:03:49.656Z,9.02
2023-03-20T09:06:16.163Z,9.07
2023-03-20T09:08:42.520Z,9.43
2023-03-20T09:11:09.094Z,7.78
2023-03-20T09:13:35.900Z,8.15
2023-03-20T09:16:03.509Z,9.75
2023-03-20T09:18:30.113Z,10.07
2023-03-20T09:20:56.688Z,8.15
2023-03-20T09:23:23.754Z,11.15
2023-03-20T09:25:50.186Z,10.98
2023-03-20T09:28:16.611Z,8.65
2023-03-20T09:30:43.714Z,10.93
2023-03-20T09:33:11.295Z,9.05
2023-03-20T09:35:38.585Z,8.80
2023-03-20T09:38:05.124Z,11.10
2023-03-20T09:40:48.215Z,9.25
2023-03-20T09:43:29.967Z,10.70
2023-03-20T09:46:34.107Z,8.80
2023-03-20T09:49:25.446Z,9.63
2023-03-20T09:51:56.355Z,9.57
2023-03-20T09:54:40.445Z,8.85
2023-03-20T09:57:24.167Z,8.18
2023-03-20T09:59:57.181Z,8.90
2023-03-20T10:02:44.847Z,7.05
2023-03-20T10:05:39.812Z,9.43
2023-03-20T10:08:13.376Z,9.02
2023-03-20T10:10:47.318Z,10.18
2023-03-20T10:13:38.757Z,9.35
2023-03-20T10:16:46.894Z,7.93
2023-03-20T10:19:24.184Z,8.07
2023-03-20T10:22:11.756Z,8.07
2023-03-20T10:25:07.461Z,8.68
2023-03-20T10:27:44.342Z,11.02
2023-03-20T10:30:33.221Z,9.90
2023-03-20T10:33:32.481Z,11.38
2023-03-20T10:36:12.845Z,8.88
2023-03-20T10:38:49.285Z,10.07
2023-03-20T10:41:19.616Z,8.32
2023-03-20T10:43:48.513Z,7.38
2023-03-20T10:46:30.188Z,6.00
2023-03-20T10:48:59.682Z,8.18
2023-03-20T10:51:48.289Z,8.07
2023-03-20T10:54:26.669Z,6.30
2023-03-20T10:56:56.511Z,8.68
2023-03-20T10:59:44.907Z,9.57
2023-03-20T11:02:13.171Z,11.38
2023-03-20T11:04:39.846Z,7.70
2023-03-20T11:07:08.948Z,8.27
2023-03-20T11:09:35.447Z,6.25
2023-03-20T11:12:02.934Z,6.90
2023-03-20T11:14:35.979Z,9.23
2023-03-20T11:17:04.233Z,10.70
2023-03-20T11:19:36.635Z,7.68
2023-03-20T11:22:21.319Z,5.35
2023-03-20T11:24:54.531Z,8.88
2023-03-20T11:27:27.037Z,5.13
2023-03-20T11:29:55.542Z,5.95
2023-03-20T11:32:30.758Z,6.60
2023-03-20T11:35:09.010Z,11.25
2023-03-20T11:37:36.251Z,8.25
2023-03-20T11:40:21.581Z,8.20
2023-03-20T11:43:21.878Z,6.03
2023-03-20T11:45:56.774Z,7.32
2023-03-20T11:48:26.599Z,7.95
2023-03-20T11:51:02.581Z,8.88
2023-03-20T11:53:38.115Z,7.15
2023-03-20T11:56:15.200Z,6.13
2023-03-20T11:59:11.781Z,8.50
2023-03-20T12:01:46.828Z,5.13
2023-03-20T12:04:17.251Z,6.80
2023-03-20T12:06:53.025Z,6.70
2023-03-20T12:09:27.832Z,6.65
2023-03-20T12:12:09.195Z,8.40
2023-03-20T12:14:57.023Z,9.05
2023-03-20T12:17:57.298Z,8.98
2023-03-20T12:20:36.760Z,6.03
2023-03-20T12:23:11.950Z,8.98
2023-03-20T12:25:47.295Z,6.90
2023-03-20T12:28:38.558Z,7.80
2023-03-20T12:31:16.766Z,8.70
2023-03-20T12:33:54.337Z,7.90
2023-03-20T12:36:32.446Z,9.75
2023-03-20T12:39:01.409Z,11.05
2023-03-20T12:41:56.911Z,10.82
2023-03-20T12:44:35.106Z,8.60
2023-03-20T12:47:35.066Z,9.15
2023-03-20T12:50:01.641Z,7.88
2023-03-20T12:52:51.969Z,9.98
2023-03-20T12:55:29.505Z,9.43
2023-03-20T12:58:23.514Z,9.52
2023-03-20T13:03:31.081Z,8.05
2023-03-20T13:06:07.812Z,7.82
2023-03-20T13:08:37.355Z,7.47
2023-03-20T13:11:14.098Z,7.03
2023-03-20T13:13:52.172Z,7.78
2023-03-20T13:16:45.099Z,9.60
2023-03-20T13:19:24.864Z,6.07
2023-03-20T13:22:13.147Z,7.90
2023-03-20T13:25:04.400Z,8.43
2023-03-20T13:27:45.260Z,9.23
2023-03-20T13:30:34.430Z,9.40
2023-03-20T13:33:31.810Z,9.18
2023-03-20T13:36:24.270Z,9.65
2023-03-20T13:38:58.897Z,12.70
2023-03-20T13:41:26.939Z,9.55
2023-03-20T13:43:58.970Z,5.80
2023-03-20T13:46:32.105Z,11.82
2023-03-20T13:49:05.832Z,7.32
2023-03-20T13:51:54.796Z,7.57
2023-03-20T13:55:00.942Z,7.38
2023-03-20T13:57:52.588Z,7.88
2023-03-20T14:00:32.977Z,12.23
2023-03-20T14:03:20.939Z,12.23
2023-03-20T14:05:47.815Z,9.10
2023-03-20T14:08:38.358Z,9.32
2023-03-20T14:11:10.735Z,10.77
2023-03-20T14:13:37.827Z,7.00
2023-03-20T14:16:08.360Z,7.57
2023-03-20T14:18:36.331Z,9.02
2023-03-20T14:21:10.283Z,12.50
2023-03-20T14:23:39.424Z,15.02
2023-03-20T14:26:19.032Z,9.52
2023-03-20T14:29:12.088Z,9.73
2023-03-20T14:31:41.750Z,10.53
2023-03-20T14:34:16.438Z,11.75
2023-03-20T14:37:03.153Z,16.02
2023-03-20T14:39:54.063Z,10.10
2023-03-20T14:42:26.466Z,10.40
2023-03-20T14:45:28.470Z,11.30
2023-03-20T14:47:54.831Z,10.00
2023-03-20T14:50:31.595Z,9.45
2023-03-20T14:53:19.741Z,9.63
2023-03-20T14:55:55.555Z,11.02
2023-03-20T14:58:54.692Z,10.98
2023-03-20T15:01:21.623Z,10.05
2023-03-20T15:03:52.678Z,11.10
2023-03-20T15:06:22.036Z,12.68
2023-03-20T15:09:10.493Z,12.68
2023-03-20T15:11:37.840Z,8.93
2023-03-20T15:14:09.915Z,14.45
2023-03-20T15:16:38.064Z,11.02
2023-03-20T15:19:17.207Z,11.60
2023-03-20T15:21:45.573Z,8.00
2023-03-20T15:24:20.175Z,13.57
2023-03-20T15:26:46.774Z,11.27
2023-03-20T15:29:18.870Z,14.10
2023-03-20T15:31:46.047Z,10.50
2023-03-20T15:34:23.054Z,11.45
2023-03-20T15:36:50.611Z,10.75
2023-03-20T15:39:30.470Z,11.40
2023-03-20T15:42:03.690Z,9.77
2023-03-20T15:44:38.254Z,10.57
2023-03-20T15:47:20.317Z,9.68
2023-03-20T15:49:54.138Z,14.13
2023-03-20T15:52:36.456Z,10.18
2023-03-20T15:55:07.233Z,11.23
2023-03-20T15:57:36.414Z,13.07
2023-03-20T16:00:10.011Z,8.50
2023-03-20T16:02:37.313Z,10.32
2023-03-20T16:05:04.630Z,11.18
2023-03-20T16:07:33.175Z,11.02
2023-03-20T16:10:00.407Z,16.00
2023-03-20T16:12:27.586Z,11.80
2023-03-20T16:14:55.648Z,10.52
2023-03-20T16:17:25.013Z,14.40
2023-03-20T16:19:51.880Z,11.40
2023-03-20T16:22:32.276Z,8.00
2023-03-20T16:25:01.600Z,13.73
2023-03-20T16:27:32.320Z,15.00
2023-03-20T16:29:59.227Z,13.60
2023-03-20T16:32:37.806Z,13.10
2023-03-20T16:35:15.296Z,11.13
2023-03-20T16:37:48.425Z,13.93
2023-03-20T16:40:28.557Z,15.52
2023-03-20T16:42:57.104Z,14.20
2023-03-20T16:45:25.619Z,12.75
2023-03-20T16:48:11.937Z,14.73
2023-03-20T16:50:40.921Z,10.25
2023-03-20T16:53:14.012Z,8.35
2023-03-20T16:55:49.585Z,7.57
2023-03-20T16:58:29.285Z,12.90
2023-03-20T17:01:05.368Z,9.40
2023-03-20T17:03:44.397Z,12.18
2023-03-20T17:06:21.299Z,14.02
2023-03-20T17:08:53.652Z,13.68
2023-03-20T17:11:31.097Z,8.50
2023-03-20T17:13:57.494Z,13.00
2023-03-20T17:16:24.794Z,11.95
2023-03-20T17:19:02.696Z,10.23
2023-03-20T17:21:29.793Z,10.93
2023-03-20T17:23:56.234Z,9.73
2023-03-20T17:26:23.302Z,10.80
2023-03-20T17:28:50.256Z,11.90
2023-03-20T17:31:18.046Z,10.25
2023-03-20T17:33:45.925Z,7.55
2023-03-20T17:36:18.328Z,8.93
2023-03-20T17:38:44.772Z,10.05
2023-03-20T17:41:16.442Z,7.55
2023-03-20T17:43:43.254Z,9.27
2023-03-20T17:46:17.867Z,9.18
2023-03-20T17:48:45.228Z,7.45
2023-03-20T17:51:12.708Z,13.85
2023-03-20T17:53:39.411Z,9.90
2023-03-20T17:56:12.807Z,8.70
2023-03-20T18:01:06.923Z,11.13
2023-03-20T18:03:33.402Z,12.95
2023-03-20T18:06:00.119Z,8.30
2023-03-20T18:08:26.593Z,8.75
2023-03-20T18:10:53.488Z,11.80
2023-03-20T18:13:21.844Z,9.98
2023-03-20T18:15:49.714Z,11.43
2023-03-20T18:18:17.052Z,9.38
2023-03-20T18:20:45.413Z,11.25
2023-03-20T18:23:12.711Z,10.65
2023-03-20T18:25:39.421Z,10.15
2023-03-20T18:28:08.013Z,11.88
2023-03-20T18:30:37.586Z,11.75
2023-03-20T18:33:05.083Z,11.02
2023-03-20T18:35:31.984Z,13.13
2023-03-20T18:37:59.395Z,9.63
2023-03-20T18:40:31.152Z,14.05
2023-03-20T18:42:58.322Z,16.35
2023-03-20T18:45:27.067Z,10.38
2023-03-20T18:47:54.419Z,9.30
2023-03-20T18:50:37.600Z,9.32
2023-03-20T18:53:06.213Z,8.25
2023-03-20T18:55:34.061Z,11.15
2023-03-20T18:58:03.640Z,11.52
2023-03-20T19:00:40.112Z,12.05
2023-03-20T19:03:08.305Z,14.25
2023-03-20T19:05:36.247Z,8.18
2023-03-20T19:08:03.337Z,11.23
2023-03-20T19:10:34.311Z,9.05
2023-03-20T19:13:01.863Z,9.38
2023-03-20T19:15:35.217Z,11.90
2023-03-20T19:20:47.870Z,11.07
2023-03-20T19:23:16.622Z,15.05
2023-03-20T19:25:45.218Z,11.15
2023-03-20T19:28:21.710Z,13.98
2023-03-20T19:30:50.663Z,12.90
2023-03-20T19:33:17.139Z,12.13
2023-03-20T19:36:11.733Z,17.73
2023-03-20T19:38:31.090Z,17.45
2023-03-20T19:40:58.009Z,14.52
2023-03-20T19:43:24.633Z,10.55
2023-03-20T19:45:57.264Z,8.82
2023-03-20T19:48:50.769Z,7.22
2023-03-20T19:51:19.476Z,10.00
2023-03-20T19:53:47.157Z,8.52
2023-03-20T19:56:14.830Z,12.00
2023-03-20T19:58:41.908Z,14.05
2023-03-20T20:01:15.764Z,10.73
2023-03-20T20:03:42.736Z,12.07
2023-03-20T20:06:09.759Z,9.98
2023-03-20T20:08:49.145Z,10.48
2023-03-20T20:11:17.981Z,10.50
2023-03-20T20:16:32.220Z,13.23
2023-03-20T20:18:59.034Z,15.85
2023-03-20T20:22:13.461Z,12.57
2023-03-20T20:24:12.273Z,12.60
2023-03-20T20:26:45.225Z,14.15
2023-03-20T20:29:15.805Z,11.48
2023-03-20T20:31:43.894Z,8.98
2023-03-20T20:39:47.942Z,11.02
2023-03-20T20:42:14.989Z,10.90
2023-03-20T20:44:41.463Z,9.73
2023-03-20T20:47:08.172Z,10.85
2023-03-20T20:49:34.806Z,12.57
2023-03-20T20:52:01.626Z,12.10
2023-03-20T20:54:28.846Z,10.30
2023-03-20T20:56:55.510Z,8.68
2023-03-20T20:59:22.420Z,10.35
2023-03-20T21:01:49.262Z,17.13
2023-03-20T21:04:15.721Z,11.50
2023-03-20T21:09:28.484Z,10.77
2023-03-20T21:11:55.014Z,9.55
2023-03-20T21:14:21.894Z,12.70
2023-03-20T21:16:48.313Z,11.95
2023-03-20T21:19:14.715Z,13.55
2023-03-20T21:21:41.630Z,10.32
2023-03-20T21:24:30.522Z,14.88
2023-03-20T21:26:58.843Z,15.18
2023-03-20T21:29:25.627Z,12.75
2023-03-20T21:31:52.371Z,14.05
2023-03-20T21:34:19.178Z,14.35
2023-03-20T21:36:49.002Z,19.67
2023-03-20T21:39:16.923Z,13.65
2023-03-20T21:41:44.026Z,13.60
2023-03-20T21:44:16.730Z,14.85
2023-03-20T21:50:25.823Z,17.15
2023-03-20T21:56:05.770Z,20.33
2023-03-20T22:03:51.996Z,17.75
2023-03-20T22:07:12.828Z,17.92
2023-03-20T22:26:33.975Z,16.17
2023-03-20T22:45:11.777Z,16.25
2023-03-20T22:47:38.456Z,14.23
2023-03-20T22:50:06.220Z,13.55
2023-03-20T22:52:47.773Z,15.77
2023-03-20T22:55:16.749Z,15.35
2023-03-20T22:57:52.993Z,14.55
2023-03-20T23:00:26.973Z,14.43
2023-03-20T23:02:57.318Z,15.02
2023-03-20T23:05:30.017Z,15.77
2023-03-20T23:07:56.506Z,17.38
2023-03-20T23:10:23.763Z,16.02
2023-03-20T23:12:50.179Z,15.38
2023-03-20T23:15:16.659Z,13.73
2023-03-20T23:17:43.027Z,12.07
2023-03-20T23:20:16.709Z,18.25
2023-03-20T23:22:45.312Z,14.50
2023-03-20T23:25:27.177Z,14.48
2023-03-20T23:27:58.780Z,17.65
2023-03-20T23:30:33.934Z,19.70
2023-03-20T23:33:05.574Z,15.13
2023-03-20T23:35:32.416Z,16.85
2023-03-20T23:37:58.861Z,15.65
2023-03-20T23:40:25.559Z,17.13
2023-03-20T23:42:51.984Z,16.10
2023-03-20T23:45:20.812Z,16.45
2023-03-20T23:47:48.108Z,15.77
2023-03-20T23:50:26.510Z,15.23
2023-03-20T23:53:03.546Z,17.20
2023-03-20T23:55:42.549Z,13.23
2023-03-20T23:58:09.366Z,17.35
